Terminal Aerodrome Forecast
Issued by NWS

Home | Current Version | Previous Version | Text Only | Print | Product List | Glossary Off
Versions: 1 2 3 4 5 6 7 8 9 10 11 12 13 14

435
FTUS41 KCLE 221130
TAFFDY
TAF
KFDY 221130Z 2212/2312 26010KT P6SM FEW040 SCT200
     FM222300 23006KT P6SM FEW250
     FM230500 19006KT P6SM SCT250=

USA.gov is the U.S. government's official web portal to all federal, state and local government web resources and services.